createdAt,value
2023-03-07T00:01:24.300Z,14.13
2023-03-07T00:06:29.790Z,17.05
2023-03-07T00:11:32.961Z,16.63
2023-03-07T00:16:38.918Z,18.92
2023-03-07T00:21:44.603Z,16.15
2023-03-07T00:26:48.285Z,17.38
2023-03-07T00:31:55.089Z,15.57
2023-03-07T00:36:58.793Z,17.38
2023-03-07T00:42:02.130Z,17.80
2023-03-07T00:47:08.039Z,18.05
2023-03-07T00:52:11.393Z,17.73
2023-03-07T00:57:15.057Z,17.00
2023-03-07T01:02:20.627Z,18.10
2023-03-07T01:07:24.492Z,13.25
2023-03-07T01:12:28.275Z,15.18
2023-03-07T01:17:34.686Z,15.02
2023-03-07T01:22:38.851Z,16.35
2023-03-07T01:27:43.912Z,13.32
2023-03-07T01:32:50.947Z,16.23
2023-03-07T01:37:55.247Z,11.75
2023-03-07T01:43:26.025Z,17.15
2023-03-07T01:48:36.890Z,16.23
2023-03-07T01:53:40.229Z,16.48
2023-03-07T01:58:45.329Z,13.73
2023-03-07T02:03:52.894Z,14.05
2023-03-07T02:08:56.583Z,13.30
2023-03-07T02:14:00.968Z,16.88
2023-03-07T02:19:05.926Z,15.05
2023-03-07T02:24:13.612Z,14.02
2023-03-07T02:29:18.485Z,16.02
2023-03-07T02:34:24.927Z,12.93
2023-03-07T02:39:37.450Z,13.63
2023-03-07T02:44:45.721Z,13.48
2023-03-07T02:49:49.918Z,15.27
2023-03-07T02:54:54.565Z,11.20
2023-03-07T03:00:01.206Z,14.30
2023-03-07T03:05:04.759Z,12.82
2023-03-07T03:10:09.254Z,14.60
2023-03-07T03:15:14.850Z,13.20
2023-03-07T03:20:20.386Z,13.27
2023-03-07T03:25:25.236Z,13.60
2023-03-07T03:30:32.448Z,12.38
2023-03-07T03:35:38.392Z,11.35
2023-03-07T03:40:41.859Z,9.60
2023-03-07T03:45:47.599Z,11.55
2023-03-07T03:50:51.389Z,9.65
2023-03-07T03:56:01.478Z,9.77
2023-03-07T04:01:07.772Z,10.57
2023-03-07T04:06:12.895Z,11.68
2023-03-07T04:11:16.292Z,11.02
2023-03-07T04:16:22.633Z,9.50
2023-03-07T04:21:26.594Z,9.70
2023-03-07T04:26:33.346Z,9.10
2023-03-07T04:31:38.864Z,10.02
2023-03-07T04:36:43.167Z,7.05
2023-03-07T04:41:49.316Z,10.27
2023-03-07T04:52:06.708Z,9.65
2023-03-07T04:57:10.483Z,9.82
2023-03-07T05:02:17.104Z,10.30
2023-03-07T05:07:22.304Z,6.65
2023-03-07T05:12:27.282Z,9.27
2023-03-07T05:17:35.665Z,9.77
2023-03-07T05:22:40.936Z,11.00
2023-03-07T05:27:46.243Z,9.90
2023-03-07T05:32:52.296Z,8.85
2023-03-07T05:37:58.953Z,9.10
2023-03-07T05:43:03.020Z,6.72
2023-03-07T05:48:08.998Z,7.95
2023-03-07T05:53:14.616Z,7.32
2023-03-07T05:58:23.231Z,8.93
2023-03-07T06:03:29.967Z,8.50
2023-03-07T06:08:34.497Z,7.57
2023-03-07T06:19:11.114Z,7.70
2023-03-07T06:24:14.485Z,8.00
2023-03-07T06:29:19.159Z,6.10
2023-03-07T06:34:24.538Z,6.70
2023-03-07T06:39:30.901Z,7.78
2023-03-07T06:44:36.367Z,6.88
2023-03-07T06:49:41.397Z,7.32
2023-03-07T06:54:45.912Z,6.00
2023-03-07T06:59:51.929Z,7.03
2023-03-07T07:05:01.151Z,7.15
2023-03-07T07:15:11.403Z,4.65
2023-03-07T07:20:19.227Z,7.75
2023-03-07T07:25:23.298Z,6.72
2023-03-07T07:30:27.897Z,5.40
2023-03-07T07:35:33.424Z,7.18
2023-03-07T07:40:37.527Z,6.47
2023-03-07T07:45:42.224Z,6.97
2023-03-07T07:50:53.146Z,6.80
2023-03-07T07:55:58.525Z,6.00
2023-03-07T08:01:03.117Z,5.07
2023-03-07T08:06:08.229Z,5.22
2023-03-07T08:11:12.050Z,5.30
2023-03-07T08:16:16.804Z,5.07
2023-03-07T08:21:22.648Z,7.32
2023-03-07T08:26:26.737Z,6.32
2023-03-07T08:31:32.108Z,7.38
2023-03-07T08:36:37.534Z,7.53
2023-03-07T08:41:40.918Z,6.95
2023-03-07T08:46:44.234Z,6.22
2023-03-07T08:51:49.570Z,7.60
2023-03-07T08:56:53.569Z,6.55
2023-03-07T09:08:07.059Z,6.57
2023-03-07T09:13:29.567Z,5.03
2023-03-07T09:23:52.648Z,5.55
2023-03-07T09:35:17.490Z,6.43
2023-03-07T09:40:23.780Z,7.80
2023-03-07T09:45:54.994Z,5.72
2023-03-07T09:51:10.352Z,6.43
2023-03-07T09:56:18.691Z,6.95
2023-03-07T10:01:23.781Z,5.60
2023-03-07T10:06:30.843Z,5.63
2023-03-07T10:11:52.258Z,7.43
2023-03-07T10:17:01.323Z,7.00
2023-03-07T10:22:10.598Z,5.88
2023-03-07T10:27:16.008Z,7.25
2023-03-07T10:32:25.309Z,6.38
2023-03-07T10:37:56.368Z,5.45
2023-03-07T10:43:01.148Z,6.97
2023-03-07T10:48:07.342Z,7.50
2023-03-07T10:53:18.065Z,7.50
2023-03-07T10:58:24.389Z,7.25
2023-03-07T11:03:29.257Z,7.13
2023-03-07T11:08:34.779Z,7.40
2023-03-07T11:13:42.040Z,6.30
2023-03-07T11:18:45.836Z,7.03
2023-03-07T11:23:49.390Z,7.45
2023-03-07T11:29:13.216Z,7.05
2023-03-07T11:34:29.241Z,5.85
2023-03-07T11:39:35.937Z,5.80
2023-03-07T11:44:43.520Z,5.57
2023-03-07T11:49:56.696Z,6.22
2023-03-07T11:55:04.215Z,6.57
2023-03-07T12:00:32.413Z,6.30
2023-03-07T12:05:46.996Z,5.68
2023-03-07T12:11:00.583Z,4.68
2023-03-07T12:16:12.064Z,4.55
2023-03-07T12:21:29.500Z,6.63
2023-03-07T12:26:35.357Z,5.90
2023-03-07T12:31:44.116Z,5.25
2023-03-07T12:36:53.035Z,4.90
2023-03-07T12:42:05.830Z,5.25
2023-03-07T12:47:24.953Z,7.05
2023-03-07T12:52:40.569Z,5.03
2023-03-07T12:57:46.651Z,6.00
2023-03-07T13:02:59.568Z,3.92
2023-03-07T13:08:06.395Z,5.05
2023-03-07T13:13:46.196Z,6.03
2023-03-07T13:18:57.059Z,6.60
2023-03-07T13:24:35.874Z,6.68
2023-03-07T13:30:24.902Z,5.40
2023-03-07T13:36:00.752Z,6.85
2023-03-07T13:41:05.674Z,7.13
2023-03-07T13:46:30.658Z,6.80
2023-03-07T13:51:35.669Z,7.38
2023-03-07T13:56:41.852Z,7.03
2023-03-07T14:01:51.510Z,7.15
2023-03-07T14:06:58.554Z,8.02
2023-03-07T14:12:16.476Z,6.57
2023-03-07T14:17:29.278Z,6.80
2023-03-07T14:22:46.235Z,5.88
2023-03-07T14:27:59.487Z,8.00
2023-03-07T14:33:03.152Z,7.95
2023-03-07T14:38:09.920Z,6.55
2023-03-07T14:43:23.226Z,6.68
2023-03-07T14:48:38.257Z,6.82
2023-03-07T14:53:45.653Z,5.20
2023-03-07T14:58:53.822Z,5.68
2023-03-07T15:03:58.703Z,4.75
2023-03-07T15:09:05.904Z,5.85
2023-03-07T15:14:12.775Z,4.30
2023-03-07T15:19:19.637Z,4.65
2023-03-07T15:24:38.556Z,3.90
2023-03-07T15:30:02.672Z,4.50
2023-03-07T15:35:17.506Z,5.35
2023-03-07T15:40:28.394Z,3.97
2023-03-07T15:45:34.513Z,5.40
2023-03-07T15:50:38.189Z,5.85
2023-03-07T15:55:44.414Z,5.03
2023-03-07T16:00:48.356Z,5.18
2023-03-07T16:05:52.257Z,6.07
2023-03-07T16:11:02.472Z,5.97
2023-03-07T16:16:10.569Z,5.25
2023-03-07T16:21:18.993Z,5.35
2023-03-07T16:26:46.880Z,5.80
2023-03-07T16:31:53.100Z,4.00
2023-03-07T16:37:02.714Z,6.20
2023-03-07T16:42:10.689Z,5.47
2023-03-07T16:47:15.489Z,5.93
2023-03-07T16:52:23.844Z,6.78
2023-03-07T16:57:35.808Z,6.38
2023-03-07T17:02:52.509Z,5.70
2023-03-07T17:07:59.515Z,6.47
2023-03-07T17:13:06.868Z,7.55
2023-03-07T17:18:12.421Z,7.53
2023-03-07T17:23:23.831Z,7.25
2023-03-07T17:28:30.905Z,7.45
2023-03-07T17:33:34.792Z,5.57
2023-03-07T17:38:41.894Z,5.43
2023-03-07T17:43:52.948Z,5.88
2023-03-07T17:49:01.042Z,6.80
2023-03-07T17:54:08.306Z,5.15
2023-03-07T17:59:15.160Z,5.38
2023-03-07T18:04:19.891Z,4.90
2023-03-07T18:09:25.698Z,4.47
2023-03-07T18:14:31.248Z,5.80
2023-03-07T18:19:36.975Z,4.70
2023-03-07T18:24:41.072Z,6.38
2023-03-07T18:29:49.699Z,4.57
2023-03-07T18:34:56.852Z,4.90
2023-03-07T18:40:02.236Z,5.68
2023-03-07T18:45:14.587Z,6.30
2023-03-07T18:50:22.952Z,5.30
2023-03-07T18:55:27.729Z,5.63
2023-03-07T19:00:37.165Z,5.63
2023-03-07T19:10:49.070Z,6.43
2023-03-07T19:16:03.486Z,5.15
2023-03-07T19:21:07.627Z,6.55
2023-03-07T19:26:13.000Z,4.63
2023-03-07T19:31:44.353Z,5.53
2023-03-07T19:36:48.263Z,6.07
2023-03-07T19:41:54.608Z,6.25
2023-03-07T19:46:59.912Z,5.57
2023-03-07T19:52:04.708Z,6.25
2023-03-07T19:57:09.302Z,5.10
2023-03-07T20:02:14.326Z,6.70
2023-03-07T20:07:18.020Z,6.20
2023-03-07T20:12:21.779Z,4.38
2023-03-07T20:17:28.292Z,6.10
2023-03-07T20:22:33.471Z,4.43
2023-03-07T20:27:37.592Z,4.57
2023-03-07T20:32:50.693Z,6.03
2023-03-07T20:37:55.643Z,4.82
2023-03-07T20:43:02.911Z,5.28
2023-03-07T20:48:08.221Z,4.97
2023-03-07T20:53:11.973Z,4.40
2023-03-07T20:58:15.366Z,6.50
2023-03-07T21:03:20.264Z,3.92
2023-03-07T21:08:26.821Z,4.68
2023-03-07T21:13:30.492Z,5.50
2023-03-07T21:18:36.169Z,4.72
2023-03-07T21:23:40.326Z,5.22
2023-03-07T21:28:45.000Z,4.35
2023-03-07T21:39:17.193Z,4.68
2023-03-07T21:44:20.512Z,4.60
2023-03-07T21:49:23.857Z,4.75
2023-03-07T21:54:29.011Z,4.32
2023-03-07T21:59:36.910Z,3.25
2023-03-07T22:04:41.740Z,4.68
2023-03-07T22:09:46.603Z,4.38
2023-03-07T22:14:50.419Z,4.82
2023-03-07T22:19:54.163Z,4.13
2023-03-07T22:24:59.199Z,5.45
2023-03-07T22:30:02.513Z,4.90
2023-03-07T22:35:06.567Z,5.15
2023-03-07T22:40:14.178Z,3.85
2023-03-07T22:45:17.732Z,4.40
2023-03-07T22:50:21.479Z,4.55
2023-03-07T22:55:26.778Z,4.55
2023-03-07T23:00:30.664Z,5.55
2023-03-07T23:05:34.318Z,6.53
2023-03-07T23:10:40.091Z,6.18
2023-03-07T23:15:43.341Z,5.82
2023-03-07T23:20:47.706Z,5.88
2023-03-07T23:25:52.752Z,6.13
2023-03-07T23:30:57.107Z,6.50
2023-03-07T23:36:01.287Z,6.30
2023-03-07T23:41:06.312Z,5.45
2023-03-07T23:46:12.345Z,5.60
2023-03-07T23:51:16.605Z,3.85
2023-03-07T23:56:21.529Z,4.97
